To NAV CANADA Home Page Login to a new session Search on AWWS site Feedback and Comments Disclaimer Vers la page française équivalente Tips FAQ What's new on the site To the Forecasts and Observations / NOTAM section To "File a Flight Plan" website Publications and other links Update of the User's profile FIC Telephone Numbers My Weather Data Folder Route Weather Data Regional Weather Data Local Weather Data To the Forecasts and Observations / NOTAM section
Request Generated 01/21/2017 at 02:09:13 UTC . Weather information available at that time is displayed.

METAR/TAF

HAY RIVER/MERLYN CARTER AIRPORT/NT    

METAR CYHY 210200Z 30016G23KT 15SM -SN OVC030 M14/M16 A2951 RMK SC8
SLP010=
METAR CYHY 210100Z 29015KT 15SM -SN SCT011 OVC029 M13/M15 A2948 RMK
SF4SC4 SLP000=
METAR CYHY 210000Z 30015G20KT 14SM -SN BKN016 OVC036 M12/M14 A2946
RMK SF5SC3 SLP992=

TAF CYHY 202338Z 2100/2112 30012G22KT P6SM SCT015 OVC030 TEMPO
2100/2112 5SM -SN BKN015 OVC030
BECMG 2109/2111 29008KT
RMK NXT FCST BY 210600Z=
Your time UTC time
Weather data provided by Environment Canada and NAV CANADA